5NBMX DNMM-DBBR
Flight info
| Callsign | 5NBMX |
|---|---|
| Flight time | N/A |
| Altitude | 1500 |
| Route | DCT TENTU DCT 11N003E DCT |
| Aircraft | S76/L-VGD/C |
Departure
| Time | 2026-05-06 15:55 |
|---|---|
| Airport | Murtala Muhammed International Airport (DNMM) |
Arrival
| Time | N/A |
|---|---|
| Airport | Bembereke Airport (DBBR) |
| Time | Latitude | Longitude | Altitude | Speed | Heading |
|---|---|---|---|---|---|
| 2026-05-06 15:33 | 6.59317 | 3.33487 | 85 ft | 0 kts | 207° |
| 2026-05-06 15:47 | 6.59317 | 3.33482 | -237 ft | 6 kts | 291° |
| 2026-05-06 15:47 | 6.59325 | 3.33437 | 84 ft | 6 kts | 262° |
| 2026-05-06 15:48 | 6.59312 | 3.33386 | 84 ft | 9 kts | 243° |
| 2026-05-06 15:48 | 6.59287 | 3.33332 | 85 ft | 6 kts | 246° |
| 2026-05-06 15:48 | 6.59274 | 3.33300 | 86 ft | 5 kts | 244° |
| 2026-05-06 15:48 | 6.59267 | 3.33285 | 84 ft | 0 kts | 248° |
| 2026-05-06 15:49 | 6.59268 | 3.33283 | 84 ft | 0 kts | 304° |
| 2026-05-06 15:49 | 6.59268 | 3.33284 | 84 ft | 0 kts | 309° |
| 2026-05-06 15:49 | 6.59270 | 3.33284 | 84 ft | 3 kts | 348° |
| 2026-05-06 15:49 | 6.59296 | 3.33293 | 83 ft | 6 kts | 86° |
| 2026-05-06 15:50 | 6.59295 | 3.33299 | 87 ft | 7 kts | 105° |
| 2026-05-06 15:51 | 6.59296 | 3.33329 | 85 ft | 8 kts | 76° |
| 2026-05-06 15:51 | 6.59276 | 3.33360 | 84 ft | 6 kts | 221° |
| 2026-05-06 15:51 | 6.59264 | 3.33334 | 84 ft | 5 kts | 245° |
| 2026-05-06 15:52 | 6.59243 | 3.33284 | 84 ft | 10 kts | 246° |
| 2026-05-06 15:52 | 6.59213 | 3.33214 | 85 ft | 11 kts | 248° |
| 2026-05-06 15:52 | 6.59189 | 3.33146 | 85 ft | 10 kts | 249° |
| 2026-05-06 15:52 | 6.59169 | 3.33088 | 84 ft | 8 kts | 250° |
| 2026-05-06 15:53 | 6.59152 | 3.33042 | 86 ft | 6 kts | 248° |
| 2026-05-06 15:53 | 6.59134 | 3.32996 | 85 ft | 11 kts | 254° |
| 2026-05-06 15:53 | 6.59110 | 3.32928 | 84 ft | 8 kts | 254° |
| 2026-05-06 15:53 | 6.59100 | 3.32898 | 85 ft | 1 kts | 223° |
| 2026-05-06 15:54 | 6.59084 | 3.32894 | 85 ft | 0 kts | 181° |
| 2026-05-06 15:54 | 6.59089 | 3.32891 | 92 ft | 2 kts | 184° |
| 2026-05-06 15:54 | 6.59044 | 3.32886 | 126 ft | 23 kts | 185° |
| 2026-05-06 15:54 | 6.58717 | 3.32888 | 160 ft | 69 kts | 174° |
| 2026-05-06 15:55 | 6.58199 | 3.32904 | 403 ft | 77 kts | 174° |
| 2026-05-06 15:55 | 6.57710 | 3.33046 | 781 ft | 76 kts | 137° |
| 2026-05-06 15:55 | 6.57596 | 3.33608 | 970 ft | 99 kts | 73° |
| 2026-05-06 15:55 | 6.58127 | 3.34131 | 1016 ft | 121 kts | 15° |
| 2026-05-06 15:56 | 6.59009 | 3.34261 | 978 ft | 135 kts | 359° |
| 2026-05-06 15:56 | 6.59978 | 3.34299 | 1118 ft | 142 kts | 355° |
| 2026-05-06 15:56 | 6.60986 | 3.34337 | 1172 ft | 148 kts | 356° |
| 2026-05-06 15:56 | 6.62034 | 3.34356 | 1255 ft | 153 kts | 355° |
| 2026-05-06 15:57 | 6.63113 | 3.34395 | 1325 ft | 156 kts | 357° |
| 2026-05-06 15:57 | 6.64213 | 3.34408 | 1320 ft | 158 kts | 357° |
| 2026-05-06 15:57 | 6.65239 | 3.34422 | 1545 ft | 135 kts | 353° |
| 2026-05-06 15:57 | 6.66151 | 3.34447 | 1491 ft | 127 kts | 357° |
| 2026-05-06 15:58 | 6.66982 | 3.34532 | 1494 ft | 114 kts | 359° |
| 2026-05-06 15:58 | 6.67739 | 3.34602 | 1509 ft | 109 kts | 359° |
| 2026-05-06 15:58 | 6.68560 | 3.34679 | 1516 ft | 129 kts | 359° |
| 2026-05-06 15:58 | 6.69508 | 3.34773 | 1475 ft | 142 kts | 359° |
| 2026-05-06 15:59 | 6.70517 | 3.34855 | 1459 ft | 149 kts | 359° |
| 2026-05-06 15:59 | 6.71584 | 3.34926 | 1446 ft | 157 kts | 358° |
| 2026-05-06 15:59 | 6.72692 | 3.35002 | 1433 ft | 162 kts | 359° |
| 2026-05-06 15:59 | 6.73830 | 3.35074 | 1420 ft | 166 kts | 358° |
| 2026-05-06 16:00 | 6.74998 | 3.35151 | 1406 ft | 170 kts | 359° |
| 2026-05-06 16:00 | 6.76177 | 3.35216 | 1389 ft | 170 kts | 359° |
| 2026-05-06 16:00 | 6.77358 | 3.35277 | 1376 ft | 169 kts | 358° |
| 2026-05-06 16:00 | 6.78523 | 3.35356 | 1366 ft | 167 kts | 359° |
| 2026-05-06 16:01 | 6.79684 | 3.35415 | 1358 ft | 167 kts | 359° |
| 2026-05-06 16:01 | 6.80847 | 3.35469 | 1341 ft | 166 kts | 359° |
| 2026-05-06 16:01 | 6.81991 | 3.35521 | 1333 ft | 163 kts | 359° |
| 2026-05-06 16:01 | 6.83124 | 3.35562 | 1297 ft | 163 kts | 358° |
| 2026-05-06 16:02 | 6.84251 | 3.35592 | 1253 ft | 161 kts | 358° |
| 2026-05-06 16:02 | 6.85365 | 3.35607 | 1220 ft | 160 kts | 358° |
| 2026-05-06 16:02 | 6.86485 | 3.35626 | 1213 ft | 160 kts | 358° |
| 2026-05-06 16:02 | 6.87592 | 3.35639 | 1197 ft | 160 kts | 358° |
| 2026-05-06 16:03 | 6.88704 | 3.35652 | 1159 ft | 160 kts | 358° |
| 2026-05-06 16:03 | 6.89816 | 3.35666 | 1139 ft | 159 kts | 358° |
| 2026-05-06 16:03 | 6.90915 | 3.35682 | 1112 ft | 160 kts | 359° |
| 2026-05-06 16:03 | 6.92024 | 3.35686 | 1137 ft | 159 kts | 357° |
| 2026-05-06 16:04 | 6.93128 | 3.35708 | 1139 ft | 159 kts | 358° |
| 2026-05-06 16:04 | 6.94236 | 3.35726 | 1182 ft | 159 kts | 357° |
| 2026-05-06 16:04 | 6.95344 | 3.35758 | 1196 ft | 160 kts | 358° |
| 2026-05-06 16:04 | 6.96451 | 3.35786 | 1228 ft | 159 kts | 358° |
| 2026-05-06 16:05 | 6.97561 | 3.35821 | 1275 ft | 160 kts | 358° |